Terminal Aerodrome Forecast
Issued by NWS

Home | Current Version | Previous Version | Text Only | Print | Product List | Glossary On
Versions: 1 2 3 4 5 6 7 8 9 10 11 12 13 14
000
FTAK31 PAJN 051400 AAA
TAFAWG
TAF AMD
PAWG 051433Z 0515/0612 10008KT P6SM -SHRA BKN030 OVC040
      TEMPO 0515/0516 4SM -RA BR BKN020 OVC030
     FM051600 28006KT 5SM -RA BR SCT010 OVC020
     FM060200 VRB06KT 6SM -RA BR SCT015 OVC030
     FM060500 VRB05KT P6SM VCSH SCT010 OVC030
      AMD LTD TO CLD VIS AND WIND 0515/0515=

USA.gov is the U.S. government's official web portal to all federal, state and local government web resources and services.